createdAt,value
2023-05-10T00:00:11.150Z,96805.13
2023-05-10T00:02:37.560Z,96800.59
2023-05-10T00:05:04.188Z,96792.84
2023-05-10T00:07:30.636Z,96797.41
2023-05-10T00:09:57.010Z,96802.22
2023-05-10T00:12:23.386Z,96784.25
2023-05-10T00:14:50.011Z,96788.09
2023-05-10T00:17:16.391Z,96796.50
2023-05-10T00:19:42.791Z,96790.78
2023-05-10T00:22:09.346Z,96796.22
2023-05-10T00:24:35.710Z,96793.53
2023-05-10T00:27:02.187Z,96801.88
2023-05-10T00:29:28.592Z,96800.84
2023-05-10T00:31:55.055Z,96795.56
2023-05-10T00:34:21.452Z,96798.47
2023-05-10T00:36:47.851Z,96791.78
2023-05-10T00:39:14.282Z,96794.84
2023-05-10T00:41:40.662Z,96796.19
2023-05-10T00:44:07.086Z,96790.63
2023-05-10T00:46:33.603Z,96780.00
2023-05-10T00:49:00.051Z,96779.44
2023-05-10T00:51:26.525Z,96773.72
2023-05-10T00:53:52.920Z,96770.34
2023-05-10T00:56:19.291Z,96768.53
2023-05-10T00:58:45.652Z,96773.44
2023-05-10T01:01:12.082Z,96775.13
2023-05-10T01:03:38.585Z,96767.56
2023-05-10T01:06:04.963Z,96771.47
2023-05-10T01:08:31.353Z,96762.66
2023-05-10T01:10:57.819Z,96764.00
2023-05-10T01:13:24.297Z,96766.50
2023-05-10T01:15:50.756Z,96777.38
2023-05-10T01:18:17.244Z,96778.63
2023-05-10T01:20:43.616Z,96793.97
2023-05-10T01:23:10.044Z,96788.34
2023-05-10T01:25:36.765Z,96787.47
2023-05-10T01:28:03.131Z,96792.38
2023-05-10T01:30:29.500Z,96789.78
2023-05-10T01:32:55.936Z,96791.88
2023-05-10T01:35:22.343Z,96788.56
2023-05-10T01:37:48.712Z,96790.94
2023-05-10T01:40:15.226Z,96790.78
2023-05-10T01:42:41.677Z,96791.53
2023-05-10T01:45:08.096Z,96796.25
2023-05-10T01:47:34.536Z,96799.28
2023-05-10T01:50:00.943Z,96792.81
2023-05-10T01:52:27.367Z,96802.75
2023-05-10T01:54:53.798Z,96803.03
2023-05-10T01:57:20.213Z,96806.66
2023-05-10T01:59:46.684Z,96809.81
2023-05-10T02:02:13.274Z,96810.81
2023-05-10T02:04:39.735Z,96809.06
2023-05-10T02:07:06.144Z,96799.44
2023-05-10T02:09:32.627Z,96809.06
2023-05-10T02:11:59.038Z,96820.84
2023-05-10T02:14:25.468Z,96826.38
2023-05-10T02:16:51.885Z,96819.03
2023-05-10T02:19:18.385Z,96829.66
2023-05-10T02:21:44.777Z,96835.97
2023-05-10T02:24:11.166Z,96837.84
2023-05-10T02:26:37.557Z,96831.22
2023-05-10T02:29:03.935Z,96824.81
2023-05-10T02:31:30.389Z,96831.56
2023-05-10T02:33:56.818Z,96819.09
2023-05-10T02:36:23.207Z,96832.00
2023-05-10T02:38:49.582Z,96823.47
2023-05-10T02:41:16.165Z,96831.09
2023-05-10T02:43:42.555Z,96832.47
2023-05-10T02:46:09.066Z,96830.66
2023-05-10T02:48:35.454Z,96835.72
2023-05-10T02:51:01.829Z,96843.22
2023-05-10T02:53:28.212Z,96848.47
2023-05-10T02:55:54.570Z,96848.06
2023-05-10T02:58:20.948Z,96845.00
2023-05-10T03:00:47.317Z,96845.19
2023-05-10T03:03:13.686Z,96847.91
2023-05-10T03:05:40.144Z,96849.63
2023-05-10T03:08:06.537Z,96845.25
2023-05-10T03:10:32.924Z,96843.69
2023-05-10T03:12:59.326Z,96844.41
2023-05-10T03:15:25.693Z,96845.03
2023-05-10T03:17:52.168Z,96846.56
2023-05-10T03:20:18.798Z,96837.94
2023-05-10T03:22:45.377Z,96842.00
2023-05-10T03:25:11.746Z,96840.38
2023-05-10T03:27:38.103Z,96838.41
2023-05-10T03:30:04.532Z,96839.38
2023-05-10T03:32:30.924Z,96837.41
2023-05-10T03:34:57.311Z,96821.22
2023-05-10T03:37:23.718Z,96823.13
2023-05-10T03:39:50.141Z,96834.81
2023-05-10T03:42:16.531Z,96822.56
2023-05-10T03:44:42.961Z,96825.03
2023-05-10T03:47:09.434Z,96823.75
2023-05-10T03:49:35.893Z,96821.25
2023-05-10T03:52:02.254Z,96816.19
2023-05-10T03:54:28.629Z,96816.13
2023-05-10T03:56:55.047Z,96819.78
2023-05-10T03:59:21.452Z,96822.03
2023-05-10T04:01:47.858Z,96818.47
2023-05-10T04:04:14.328Z,96820.28
2023-05-10T04:06:40.721Z,96818.06
2023-05-10T04:09:07.219Z,96807.94
2023-05-10T04:11:33.591Z,96817.50
2023-05-10T04:13:59.983Z,96819.06
2023-05-10T04:16:26.385Z,96815.00
2023-05-10T04:18:52.826Z,96808.91
2023-05-10T04:21:19.496Z,96806.97
2023-05-10T04:23:45.925Z,96814.38
2023-05-10T04:26:12.358Z,96822.22
2023-05-10T04:28:38.908Z,96819.56
2023-05-10T04:31:05.430Z,96821.72
2023-05-10T04:33:31.875Z,96826.25
2023-05-10T04:35:58.288Z,96809.25
2023-05-10T04:38:24.711Z,96818.28
2023-05-10T04:40:51.147Z,96824.88
2023-05-10T04:43:17.650Z,96830.09
2023-05-10T04:45:44.105Z,96816.47
2023-05-10T04:48:10.488Z,96811.59
2023-05-10T04:50:36.892Z,96828.31
2023-05-10T04:53:03.281Z,96823.59
2023-05-10T04:55:29.647Z,96822.94
2023-05-10T04:57:56.057Z,96829.09
2023-05-10T05:00:22.510Z,96832.50
2023-05-10T05:02:49.052Z,96824.47
2023-05-10T05:05:15.565Z,96833.94
2023-05-10T05:07:41.974Z,96833.25
2023-05-10T05:10:08.408Z,96829.88
2023-05-10T05:12:34.819Z,96832.72
2023-05-10T05:15:01.189Z,96833.56
2023-05-10T05:17:27.630Z,96828.16
2023-05-10T05:19:54.039Z,96823.56
2023-05-10T05:22:20.551Z,96821.97
2023-05-10T05:24:46.985Z,96819.59
2023-05-10T05:27:13.381Z,96828.84
2023-05-10T05:29:39.752Z,96833.25
2023-05-10T05:32:06.286Z,96830.56
2023-05-10T05:34:32.750Z,96839.06
2023-05-10T05:36:59.170Z,96835.81
2023-05-10T05:39:25.805Z,96841.34
2023-05-10T05:41:52.177Z,96833.69
2023-05-10T05:44:18.593Z,96850.63
2023-05-10T05:46:44.987Z,96853.97
2023-05-10T05:49:11.384Z,96853.78
2023-05-10T05:51:37.783Z,96857.84
2023-05-10T05:54:05.419Z,96852.66
2023-05-10T05:56:31.850Z,96846.84
2023-05-10T05:58:58.310Z,96855.09
2023-05-10T06:01:24.700Z,96848.53
2023-05-10T06:03:53.174Z,96853.81
2023-05-10T06:06:19.893Z,96857.28
2023-05-10T06:08:46.269Z,96853.13
2023-05-10T06:11:12.718Z,96856.59
2023-05-10T06:13:39.145Z,96855.16
2023-05-10T06:16:05.581Z,96861.47
2023-05-10T06:18:32.163Z,96862.31
2023-05-10T06:20:58.591Z,96863.34
2023-05-10T06:23:24.989Z,96863.34
2023-05-10T06:25:51.389Z,96861.47
2023-05-10T06:28:17.910Z,96867.81
2023-05-10T06:30:44.268Z,96859.66
2023-05-10T06:33:10.688Z,96859.09
2023-05-10T06:35:37.093Z,96854.44
2023-05-10T06:38:03.551Z,96866.22
2023-05-10T06:40:29.973Z,96865.47
2023-05-10T06:42:56.374Z,96865.19
2023-05-10T06:45:22.795Z,96873.84
2023-05-10T06:47:49.222Z,96874.94
2023-05-10T06:50:15.670Z,96875.75
2023-05-10T06:52:42.078Z,96879.16
2023-05-10T06:55:08.489Z,96879.47
2023-05-10T06:57:35.019Z,96884.59
2023-05-10T07:00:01.535Z,96886.06
2023-05-10T07:02:28.187Z,96891.69
2023-05-10T07:04:54.706Z,96881.72
2023-05-10T07:07:21.314Z,96880.41
2023-05-10T07:09:47.729Z,96891.63
2023-05-10T07:12:15.524Z,96892.41
2023-05-10T07:14:42.524Z,96891.56
2023-05-10T07:17:08.985Z,96889.38
2023-05-10T07:19:35.495Z,96892.41
2023-05-10T07:22:02.016Z,96894.75
2023-05-10T07:24:28.665Z,96895.78
2023-05-10T07:26:55.180Z,96893.19
2023-05-10T07:29:21.697Z,96904.03
2023-05-10T07:31:48.191Z,96898.69
2023-05-10T07:34:14.676Z,96903.25
2023-05-10T07:36:41.065Z,96901.69
2023-05-10T07:39:07.464Z,96904.28
2023-05-10T07:41:34.064Z,96904.81
2023-05-10T07:44:02.477Z,96905.16
2023-05-10T07:46:28.994Z,96901.13
2023-05-10T07:48:55.560Z,96899.47
2023-05-10T07:51:22.187Z,96906.06
2023-05-10T07:53:48.668Z,96900.09
2023-05-10T07:56:15.083Z,96907.16
2023-05-10T07:58:41.478Z,96904.06
2023-05-10T08:01:07.903Z,96908.38
2023-05-10T08:03:34.519Z,96901.66
2023-05-10T08:06:01.008Z,96907.84
2023-05-10T08:08:27.500Z,96917.72
2023-05-10T08:10:53.910Z,96912.31
2023-05-10T08:13:23.263Z,96913.97
2023-05-10T08:15:49.731Z,96914.28
2023-05-10T08:18:16.201Z,96908.88
2023-05-10T08:20:42.727Z,96907.84
2023-05-10T08:23:09.142Z,96901.13
2023-05-10T08:25:35.533Z,96900.59
2023-05-10T08:28:02.216Z,96897.13
2023-05-10T08:30:28.624Z,96904.09
2023-05-10T08:32:55.044Z,96902.19
2023-05-10T08:35:21.553Z,96903.31
2023-05-10T08:37:48.009Z,96902.75
2023-05-10T08:40:14.579Z,96905.72
2023-05-10T08:42:41.174Z,96900.88
2023-05-10T08:45:07.690Z,96908.13
2023-05-10T08:47:34.245Z,96907.03
2023-05-10T08:50:00.796Z,96911.38
2023-05-10T08:52:27.234Z,96912.91
2023-05-10T08:54:53.637Z,96918.63
2023-05-10T08:57:20.071Z,96921.56
2023-05-10T08:59:46.660Z,96915.34
2023-05-10T09:02:13.244Z,96915.16
2023-05-10T09:04:39.855Z,96915.16
2023-05-10T09:07:06.288Z,96913.56
2023-05-10T09:09:32.671Z,96925.00
2023-05-10T09:11:59.060Z,96928.63
2023-05-10T09:14:25.460Z,96935.44
2023-05-10T09:16:52.061Z,96928.25
2023-05-10T09:19:18.474Z,96946.00
2023-05-10T09:21:44.847Z,96938.69
2023-05-10T09:24:11.263Z,96945.19
2023-05-10T09:26:37.733Z,96947.59
2023-05-10T09:29:04.184Z,96945.31
2023-05-10T09:31:30.719Z,96940.56
2023-05-10T09:33:57.301Z,96945.44
2023-05-10T09:36:23.696Z,96955.94
2023-05-10T09:38:50.160Z,96947.66
2023-05-10T09:41:16.572Z,96963.91
2023-05-10T09:43:42.989Z,96965.09
2023-05-10T09:46:09.447Z,96969.56
2023-05-10T09:48:35.838Z,96979.03
2023-05-10T09:51:02.257Z,96951.50
2023-05-10T09:53:28.653Z,96951.66
2023-05-10T09:55:55.090Z,96952.06
2023-05-10T09:58:21.588Z,96940.84
2023-05-10T10:00:50.774Z,96942.00
2023-05-10T10:03:17.212Z,96955.47
2023-05-10T10:05:43.668Z,96950.41
2023-05-10T10:08:10.134Z,96949.75
2023-05-10T10:10:36.674Z,96944.44
2023-05-10T10:13:03.094Z,96945.78
2023-05-10T10:15:29.521Z,96942.00
2023-05-10T10:17:56.146Z,96936.59
2023-05-10T10:20:22.600Z,96931.31
2023-05-10T10:22:48.997Z,96925.53
2023-05-10T10:25:15.556Z,96927.69
2023-05-10T10:27:42.169Z,96932.66
2023-05-10T10:30:08.617Z,96938.47
2023-05-10T10:32:35.041Z,96932.09
2023-05-10T10:35:01.477Z,96935.19
2023-05-10T10:37:27.910Z,96936.06
2023-05-10T10:39:54.283Z,96931.56
2023-05-10T10:42:20.705Z,96940.34
2023-05-10T10:44:47.096Z,96941.47
2023-05-10T10:47:13.496Z,96942.50
2023-05-10T10:49:39.876Z,96942.00
2023-05-10T10:52:06.244Z,96966.47
2023-05-10T10:54:32.655Z,96960.69
2023-05-10T10:56:59.120Z,96962.31
2023-05-10T10:59:25.524Z,96968.91
2023-05-10T11:01:51.906Z,96959.91
2023-05-10T11:04:18.339Z,96957.94
2023-05-10T11:06:44.817Z,96957.56
2023-05-10T11:09:11.178Z,96970.94
2023-05-10T11:11:37.600Z,96954.41
2023-05-10T11:14:04.001Z,96966.16
2023-05-10T11:16:30.526Z,96957.91
2023-05-10T11:18:56.941Z,96966.09
2023-05-10T11:21:23.607Z,96953.25
2023-05-10T11:23:49.987Z,96952.16
2023-05-10T11:26:16.363Z,96954.16
2023-05-10T11:28:42.848Z,96947.34
2023-05-10T11:31:09.283Z,96951.31
2023-05-10T11:33:35.666Z,96939.31
2023-05-10T11:36:02.211Z,96944.38
2023-05-10T11:38:28.578Z,96933.25
2023-05-10T11:40:54.988Z,96946.50
2023-05-10T11:43:21.396Z,96939.63
2023-05-10T11:45:47.777Z,96938.13
2023-05-10T11:48:14.269Z,96937.69
2023-05-10T11:50:40.763Z,96949.84
2023-05-10T11:53:07.149Z,96947.41
2023-05-10T11:55:33.519Z,96950.84
2023-05-10T11:58:00.087Z,96956.28
2023-05-10T12:00:26.600Z,96946.59
2023-05-10T12:02:53.079Z,96946.06
2023-05-10T12:05:19.579Z,96956.53
2023-05-10T12:07:46.124Z,96950.88
2023-05-10T12:10:12.926Z,96951.69
2023-05-10T12:12:39.408Z,96962.44
2023-05-10T12:15:05.851Z,96977.25
2023-05-10T12:17:32.347Z,96970.47
2023-05-10T12:19:58.753Z,96975.53
2023-05-10T12:22:25.222Z,96964.31
2023-05-10T12:24:51.667Z,96968.94
2023-05-10T12:27:18.147Z,96977.19
2023-05-10T12:29:44.524Z,96965.94
2023-05-10T12:32:11.220Z,96971.69
2023-05-10T12:34:37.693Z,96968.66
2023-05-10T12:37:04.136Z,96963.09
2023-05-10T12:39:30.875Z,96987.66
2023-05-10T12:41:57.405Z,96975.59
2023-05-10T12:44:26.834Z,96976.31
2023-05-10T12:46:53.256Z,96977.44
2023-05-10T12:49:19.690Z,96963.00
2023-05-10T12:51:46.086Z,96980.44
2023-05-10T12:54:12.499Z,96966.22
2023-05-10T12:56:38.875Z,96967.84
2023-05-10T12:59:05.294Z,96967.03
2023-05-10T13:01:31.717Z,96964.47
2023-05-10T13:03:58.099Z,96962.19
2023-05-10T13:06:24.495Z,96958.50
2023-05-10T13:08:50.891Z,96963.41
2023-05-10T13:11:17.265Z,96960.06
2023-05-10T13:13:43.649Z,96958.91
2023-05-10T13:16:10.150Z,96950.59
2023-05-10T13:18:36.596Z,96955.59
2023-05-10T13:21:03.155Z,96946.84
2023-05-10T13:23:29.571Z,96962.91
2023-05-10T13:25:55.989Z,96959.75
2023-05-10T13:28:22.523Z,96957.25
2023-05-10T13:30:48.978Z,96949.06
2023-05-10T13:33:15.413Z,96965.34
2023-05-10T13:35:42.074Z,96964.66
2023-05-10T13:38:08.485Z,96960.28
2023-05-10T13:40:34.881Z,96968.38
2023-05-10T13:43:01.351Z,96963.50
2023-05-10T13:45:27.797Z,96965.16
2023-05-10T13:47:54.195Z,96970.78
2023-05-10T13:50:20.594Z,96978.34
2023-05-10T13:52:47.010Z,96960.19
2023-05-10T13:55:13.440Z,96963.03
2023-05-10T13:57:39.832Z,96953.34
2023-05-10T14:00:06.501Z,96949.25
2023-05-10T14:02:33.003Z,96965.34
2023-05-10T14:04:59.468Z,96946.75
2023-05-10T14:07:25.950Z,96953.06
2023-05-10T14:09:52.326Z,96947.75
2023-05-10T14:12:18.826Z,96940.16
2023-05-10T14:14:45.261Z,96949.31
2023-05-10T14:17:12.538Z,96941.47
2023-05-10T14:19:39.159Z,96937.13
2023-05-10T14:22:05.590Z,96937.16
2023-05-10T14:24:31.999Z,96934.94
2023-05-10T14:26:58.384Z,96936.31
2023-05-10T14:29:24.783Z,96936.09
2023-05-10T14:31:51.272Z,96927.13
2023-05-10T14:36:44.109Z,96916.16
2023-05-10T14:39:10.528Z,96911.38
2023-05-10T14:41:37.082Z,96927.06
2023-05-10T14:44:03.486Z,96921.41
2023-05-10T14:46:30.075Z,96920.78
2023-05-10T14:48:56.580Z,96913.47
2023-05-10T14:51:23.018Z,96910.31
2023-05-10T14:53:49.445Z,96913.34
2023-05-10T14:56:15.835Z,96921.66
2023-05-10T14:58:42.309Z,96918.00
2023-05-10T15:01:08.760Z,96902.41
2023-05-10T15:03:35.731Z,96889.81
2023-05-10T15:06:02.690Z,96894.47
2023-05-10T15:08:29.130Z,96899.34
2023-05-10T15:10:55.582Z,96901.13
2023-05-10T15:13:22.091Z,96902.81
2023-05-10T15:15:48.559Z,96901.78
2023-05-10T15:18:14.978Z,96903.88
2023-05-10T15:20:41.413Z,96916.53
2023-05-10T15:23:07.871Z,96898.44
2023-05-10T15:25:34.399Z,96903.34
2023-05-10T15:28:00.800Z,96900.50
2023-05-10T15:30:27.159Z,96910.25
2023-05-10T15:32:53.740Z,96907.63
2023-05-10T15:35:20.220Z,96903.59
2023-05-10T15:37:46.638Z,96907.81
2023-05-10T15:40:13.086Z,96899.38
2023-05-10T15:42:39.450Z,96903.75
2023-05-10T15:45:05.821Z,96913.75
2023-05-10T15:47:32.283Z,96914.81
2023-05-10T15:49:58.732Z,96918.88
2023-05-10T15:52:25.260Z,96916.09
2023-05-10T15:54:51.671Z,96914.34
2023-05-10T15:57:18.035Z,96913.13
2023-05-10T15:59:44.669Z,96920.56
2023-05-10T16:02:11.098Z,96914.47
2023-05-10T16:04:37.583Z,96915.47
2023-05-10T16:07:04.005Z,96913.50
2023-05-10T16:09:30.413Z,96920.97
2023-05-10T16:11:59.898Z,96914.53
2023-05-10T16:14:26.399Z,96925.69
2023-05-10T16:16:52.926Z,96924.00
2023-05-10T16:19:19.497Z,96919.19
2023-05-10T16:21:45.978Z,96926.03
2023-05-10T16:24:12.603Z,96915.44
2023-05-10T16:26:39.002Z,96917.19
2023-05-10T16:29:05.468Z,96915.78
2023-05-10T16:31:32.132Z,96934.47
2023-05-10T16:33:58.846Z,96931.06
2023-05-10T16:36:25.293Z,96927.88
2023-05-10T16:38:51.682Z,96936.25
2023-05-10T16:41:18.429Z,96927.91
2023-05-10T16:43:44.841Z,96926.94
2023-05-10T16:46:11.309Z,96929.81
2023-05-10T16:48:37.710Z,96926.28
2023-05-10T16:51:04.149Z,96920.16
2023-05-10T16:53:30.538Z,96925.19
2023-05-10T16:55:57.084Z,96923.22
2023-05-10T16:58:23.537Z,96923.28
2023-05-10T17:00:49.996Z,96925.75
2023-05-10T17:03:16.978Z,96929.91
2023-05-10T17:05:43.433Z,96926.34
2023-05-10T17:08:09.864Z,96923.81
2023-05-10T17:10:36.521Z,96929.00
2023-05-10T17:13:02.978Z,96931.75
2023-05-10T17:15:29.424Z,96924.97
2023-05-10T17:17:55.912Z,96927.53
2023-05-10T17:20:22.431Z,96925.31
2023-05-10T17:22:49.107Z,96927.69
2023-05-10T17:25:15.737Z,96921.28
2023-05-10T17:27:42.325Z,96923.09
2023-05-10T17:30:08.927Z,96921.63
2023-05-10T17:32:35.354Z,96919.78
2023-05-10T17:35:01.774Z,96918.41
2023-05-10T17:37:28.246Z,96927.09
2023-05-10T17:39:54.706Z,96929.34
2023-05-10T17:42:21.097Z,96925.56
2023-05-10T17:44:47.543Z,96914.41
2023-05-10T17:47:13.964Z,96918.25
2023-05-10T17:49:40.391Z,96921.97
2023-05-10T17:52:06.807Z,96925.81
2023-05-10T17:54:33.209Z,96925.66
2023-05-10T17:56:59.638Z,96921.31
2023-05-10T17:59:26.113Z,96928.41
2023-05-10T18:01:52.573Z,96920.81
2023-05-10T18:04:19.009Z,96922.91
2023-05-10T18:06:45.512Z,96925.72
2023-05-10T18:09:11.927Z,96927.31
2023-05-10T18:11:38.573Z,96922.75
2023-05-10T18:14:05.040Z,96920.63
2023-05-10T18:16:31.541Z,96919.59
2023-05-10T18:18:58.163Z,96921.56
2023-05-10T18:21:24.632Z,96928.31
2023-05-10T18:23:51.147Z,96933.13
2023-05-10T18:26:17.622Z,96927.75
2023-05-10T18:28:44.049Z,96925.31
2023-05-10T18:31:10.540Z,96923.72
2023-05-10T18:33:37.012Z,96931.75
2023-05-10T18:36:03.428Z,96939.78
2023-05-10T18:38:29.803Z,96934.97
2023-05-10T18:40:56.210Z,96940.41
2023-05-10T18:43:22.596Z,96935.63
2023-05-10T18:45:49.044Z,96937.19
2023-05-10T18:48:15.471Z,96936.97
2023-05-10T18:50:41.930Z,96930.81
2023-05-10T18:53:08.378Z,96933.44
2023-05-10T18:55:34.796Z,96937.50
2023-05-10T18:58:01.196Z,96928.88
2023-05-10T19:00:27.643Z,96928.13
2023-05-10T19:02:54.060Z,96933.59
2023-05-10T19:05:20.623Z,96931.75
2023-05-10T19:07:47.197Z,96930.59
2023-05-10T19:10:13.578Z,96929.41
2023-05-10T19:12:40.085Z,96928.88
2023-05-10T19:15:06.541Z,96931.25
2023-05-10T19:17:35.673Z,96937.03
2023-05-10T19:20:03.983Z,96931.03
2023-05-10T19:24:59.953Z,96933.22
2023-05-10T19:27:26.377Z,96935.88
2023-05-10T19:29:52.774Z,96929.56
2023-05-10T19:32:19.184Z,96938.75
2023-05-10T19:34:45.619Z,96940.91
2023-05-10T19:37:12.119Z,96939.72
2023-05-10T19:39:38.498Z,96944.47
2023-05-10T19:42:04.998Z,96944.88
2023-05-10T19:44:31.641Z,96948.34
2023-05-10T19:46:58.064Z,96952.91
2023-05-10T19:49:24.781Z,96954.69
2023-05-10T19:51:51.305Z,96953.81
2023-05-10T19:54:17.757Z,96956.88
2023-05-10T19:56:44.224Z,96949.34
2023-05-10T19:59:10.699Z,96949.78
2023-05-10T20:01:37.264Z,96949.34
2023-05-10T20:04:03.841Z,96948.31
2023-05-10T20:06:30.365Z,96950.47
2023-05-10T20:08:56.839Z,96948.19
2023-05-10T20:11:23.302Z,96951.22
2023-05-10T20:13:49.764Z,96952.69
2023-05-10T20:16:16.299Z,96949.53
2023-05-10T20:18:42.775Z,96956.28
2023-05-10T20:21:09.186Z,96951.97
2023-05-10T20:23:35.622Z,96956.91
2023-05-10T20:26:02.090Z,96954.28
2023-05-10T20:28:28.515Z,96959.03
2023-05-10T20:30:54.924Z,96949.78
2023-05-10T20:33:21.387Z,96953.00
2023-05-10T20:35:47.831Z,96952.22
2023-05-10T20:38:14.282Z,96954.56
2023-05-10T20:40:40.720Z,96952.16
2023-05-10T20:43:07.100Z,96951.94
2023-05-10T20:45:33.552Z,96959.09
2023-05-10T20:48:00.023Z,96957.19
2023-05-10T20:50:26.548Z,96955.88
2023-05-10T20:52:52.941Z,96964.84
2023-05-10T20:55:19.392Z,96950.94
2023-05-10T20:57:45.779Z,96960.22
2023-05-10T21:00:12.176Z,96963.69
2023-05-10T21:02:38.676Z,96959.50
2023-05-10T21:05:05.154Z,96960.88
2023-05-10T21:07:31.636Z,96960.22
2023-05-10T21:09:58.081Z,96955.72
2023-05-10T21:12:24.516Z,96959.50
2023-05-10T21:14:50.939Z,96954.09
2023-05-10T21:17:19.904Z,96960.53
2023-05-10T21:19:46.738Z,96958.66
2023-05-10T21:22:13.130Z,96958.44
2023-05-10T21:24:39.538Z,96947.88
2023-05-10T21:27:06.019Z,96951.00
2023-05-10T21:29:32.400Z,96946.78
2023-05-10T21:31:58.884Z,96941.72
2023-05-10T21:34:25.882Z,96944.63
2023-05-10T21:36:52.553Z,96948.59
2023-05-10T21:39:18.962Z,96947.16
2023-05-10T21:41:45.534Z,96945.44
2023-05-10T21:44:11.930Z,96943.84
2023-05-10T21:46:38.360Z,96942.09
2023-05-10T21:49:04.776Z,96944.81
2023-05-10T21:51:31.162Z,96940.59
2023-05-10T21:53:57.674Z,96937.41
2023-05-10T21:56:24.061Z,96935.38
2023-05-10T21:58:50.457Z,96931.72
2023-05-10T22:01:16.997Z,96924.22
2023-05-10T22:03:43.508Z,96926.78
2023-05-10T22:06:10.104Z,96918.13
2023-05-10T22:08:36.534Z,96919.84
2023-05-10T22:11:02.987Z,96925.63
2023-05-10T22:13:29.398Z,96924.34
2023-05-10T22:15:55.824Z,96916.31
2023-05-10T22:18:22.379Z,96915.41
2023-05-10T22:20:48.867Z,96916.91
2023-05-10T22:23:15.261Z,96917.34
2023-05-10T22:25:41.651Z,96911.75
2023-05-10T22:28:08.089Z,96904.81
2023-05-10T22:30:34.485Z,96906.72
2023-05-10T22:33:00.895Z,96911.41
2023-05-10T22:35:27.382Z,96916.31
2023-05-10T22:37:53.757Z,96919.44
2023-05-10T22:40:20.168Z,96927.63
2023-05-10T22:42:46.570Z,96919.91
2023-05-10T22:45:12.971Z,96924.03
2023-05-10T22:47:39.389Z,96922.91
2023-05-10T22:50:05.854Z,96926.13
2023-05-10T22:52:32.274Z,96925.09
2023-05-10T22:54:58.728Z,96927.91
2023-05-10T22:57:25.077Z,96924.13
2023-05-10T22:59:51.453Z,96931.91
2023-05-10T23:02:17.850Z,96933.84
2023-05-10T23:04:44.593Z,96924.47
2023-05-10T23:07:10.960Z,96929.59
2023-05-10T23:09:37.351Z,96922.84
2023-05-10T23:12:03.753Z,96925.22
2023-05-10T23:14:30.206Z,96923.66
2023-05-10T23:16:56.588Z,96917.84
2023-05-10T23:19:22.977Z,96921.56
2023-05-10T23:21:49.416Z,96928.06
2023-05-10T23:24:15.841Z,96921.78
2023-05-10T23:26:42.278Z,96916.53
2023-05-10T23:29:08.682Z,96917.13
2023-05-10T23:31:35.113Z,96921.13
2023-05-10T23:34:01.522Z,96919.91
2023-05-10T23:36:27.919Z,96922.53
2023-05-10T23:38:54.304Z,96921.09
2023-05-10T23:41:20.738Z,96915.56
2023-05-10T23:43:47.111Z,96916.78
2023-05-10T23:46:13.556Z,96918.34
2023-05-10T23:48:39.960Z,96919.25
2023-05-10T23:51:06.383Z,96913.25
2023-05-10T23:53:32.786Z,96908.25
2023-05-10T23:55:59.163Z,96904.28
2023-05-10T23:58:25.536Z,96899.91
